createdAt,value
2022-08-05T00:00:50.081Z,100235.16
2022-08-05T00:03:17.155Z,100236.03
2022-08-05T00:06:06.585Z,100240.56
2022-08-05T00:08:35.497Z,100243.28
2022-08-05T00:11:03.584Z,100243.47
2022-08-05T00:13:39.608Z,100238.28
2022-08-05T00:16:12.911Z,100242.81
2022-08-05T00:18:40.752Z,100237.59
2022-08-05T00:21:09.216Z,100235.97
2022-08-05T00:23:46.102Z,100235.25
2022-08-05T00:26:13.799Z,100239.78
2022-08-05T00:28:43.038Z,100231.97
2022-08-05T00:31:13.063Z,100234.88
2022-08-05T00:34:54.614Z,100236.78
2022-08-05T00:37:11.071Z,100243.22
2022-08-05T00:39:19.056Z,100230.31
2022-08-05T00:41:46.839Z,100238.28
2022-08-05T00:44:30.904Z,100235.75
2022-08-05T00:47:01.580Z,100232.31
2022-08-05T00:49:51.280Z,100229.75
2022-08-05T00:52:19.158Z,100232.47
2022-08-05T00:54:55.994Z,100230.75
2022-08-05T00:57:23.159Z,100224.66
2022-08-05T00:59:54.425Z,100232.69
2022-08-05T01:02:20.996Z,100221.38
2022-08-05T01:04:53.177Z,100225.03
2022-08-05T01:07:23.147Z,100226.03
2022-08-05T01:09:59.017Z,100222.59
2022-08-05T01:12:29.574Z,100220.06
2022-08-05T01:15:05.174Z,100225.44
2022-08-05T01:17:40.070Z,100223.75
2022-08-05T01:20:25.721Z,100219.44
2022-08-05T01:22:59.969Z,100216.78
2022-08-05T01:25:53.440Z,100216.94
2022-08-05T01:28:47.140Z,100219.63
2022-08-05T01:31:32.466Z,100219.72
2022-08-05T01:34:13.028Z,100218.84
2022-08-05T01:36:42.249Z,100225.03
2022-08-05T01:39:45.637Z,100221.59
2022-08-05T01:42:05.271Z,100224.31
2022-08-05T01:44:37.120Z,100227.97
2022-08-05T01:47:05.199Z,100229.88
2022-08-05T01:50:00.373Z,100224.72
2022-08-05T01:52:22.370Z,100232.78
2022-08-05T01:54:53.013Z,100225.75
2022-08-05T01:58:11.970Z,100227.59
2022-08-05T02:00:13.864Z,100231.13
2022-08-05T02:02:46.429Z,100232.03
2022-08-05T02:05:23.723Z,100231.19
2022-08-05T02:07:59.996Z,100225.13
2022-08-05T02:10:28.694Z,100231.38
2022-08-05T02:12:58.342Z,100229.75
2022-08-05T02:15:33.384Z,100232.47
2022-08-05T02:18:32.941Z,100235.19
2022-08-05T02:20:54.768Z,100233.50
2022-08-05T02:23:26.546Z,100231.78
2022-08-05T02:25:54.046Z,100235.34
2022-08-05T02:28:29.195Z,100230.13
2022-08-05T02:31:02.705Z,100232.78
2022-08-05T02:33:38.247Z,100222.19
2022-08-05T02:36:05.900Z,100220.47
2022-08-05T02:38:38.267Z,100224.91
2022-08-05T02:41:14.617Z,100224.91
2022-08-05T02:44:02.964Z,100225.78
2022-08-05T02:46:30.904Z,100224.09
2022-08-05T02:48:57.536Z,100225.91
2022-08-05T02:51:28.253Z,100232.97
2022-08-05T02:54:10.884Z,100226.00
2022-08-05T02:56:57.637Z,100219.03
2022-08-05T02:59:27.739Z,100219.09
2022-08-05T03:01:58.230Z,100217.44
2022-08-05T03:04:25.350Z,100213.13
2022-08-05T03:06:55.754Z,100213.19
2022-08-05T03:09:36.043Z,100211.53
2022-08-05T03:12:05.822Z,100206.31
2022-08-05T03:14:32.385Z,100204.63
2022-08-05T03:16:59.151Z,100195.91
2022-08-05T03:19:33.968Z,100197.69
2022-08-05T03:22:03.248Z,100205.59
2022-08-05T03:24:31.723Z,100204.69
2022-08-05T03:27:00.393Z,100197.69
2022-08-05T03:29:45.939Z,100197.69
2022-08-05T03:32:14.259Z,100199.44
2022-08-05T03:34:51.352Z,100198.59
2022-08-05T03:37:18.334Z,100203.03
2022-08-05T03:40:00.924Z,100198.69
2022-08-05T03:42:41.835Z,100202.22
2022-08-05T03:45:22.041Z,100197.78
2022-08-05T03:47:50.748Z,100202.22
2022-08-05T03:50:20.109Z,100200.38
2022-08-05T03:55:52.581Z,100205.72
2022-08-05T03:56:05.287Z,100208.41
2022-08-05T03:58:32.281Z,100204.00
2022-08-05T04:01:02.430Z,100199.69
2022-08-05T04:03:35.857Z,100209.47
2022-08-05T04:06:08.746Z,100211.38
2022-08-05T04:08:36.757Z,100211.44
2022-08-05T04:11:04.649Z,100216.63
2022-08-05T04:13:50.102Z,100213.91
2022-08-05T04:16:24.228Z,100213.00
2022-08-05T04:18:54.859Z,100206.78
2022-08-05T04:22:08.467Z,100213.91
2022-08-05T04:24:18.859Z,100204.16
2022-08-05T04:26:46.948Z,100206.69
2022-08-05T04:29:16.335Z,100205.72
2022-08-05T04:31:43.089Z,100204.84
2022-08-05T04:34:18.106Z,100208.38
2022-08-05T04:36:50.046Z,100198.56
2022-08-05T04:39:18.247Z,100208.22
2022-08-05T04:41:48.082Z,100205.50
2022-08-05T04:44:29.146Z,100212.63
2022-08-05T04:46:56.654Z,100213.44
2022-08-05T04:49:24.771Z,100216.16
2022-08-05T04:52:07.767Z,100207.41
2022-08-05T04:54:37.075Z,100212.72
2022-08-05T04:57:03.971Z,100211.00
2022-08-05T04:59:38.807Z,100210.09
2022-08-05T05:02:37.282Z,100211.78
2022-08-05T05:05:02.282Z,100209.88
2022-08-05T05:07:36.023Z,100209.72
2022-08-05T05:10:06.358Z,100214.84
2022-08-05T05:12:34.111Z,100213.06
2022-08-05T05:15:10.809Z,100207.66
2022-08-05T05:17:55.570Z,100206.78
2022-08-05T05:20:28.439Z,100202.31
2022-08-05T05:22:59.761Z,100207.53
2022-08-05T05:25:40.585Z,100202.19
2022-08-05T05:28:10.781Z,100217.16
2022-08-05T05:30:44.243Z,100210.00
2022-08-05T05:33:23.277Z,100206.38
2022-08-05T05:35:51.156Z,100202.75
2022-08-05T05:38:27.034Z,100207.03
2022-08-05T05:40:55.124Z,100198.97
2022-08-05T05:43:54.841Z,100198.00
2022-08-05T05:46:17.798Z,100203.09
2022-08-05T05:48:46.054Z,100194.97
2022-08-05T05:51:19.020Z,100207.09
2022-08-05T05:53:58.024Z,100201.72
2022-08-05T05:56:33.396Z,100195.44
2022-08-05T05:59:07.382Z,100195.28
2022-08-05T06:01:37.742Z,100195.19
2022-08-05T06:04:07.627Z,100198.63
2022-08-05T06:06:37.415Z,100192.34
2022-08-05T06:09:09.603Z,100192.16
2022-08-05T06:12:02.117Z,100194.63
2022-08-05T06:14:30.528Z,100192.69
2022-08-05T06:16:57.868Z,100190.72
2022-08-05T06:19:26.158Z,100192.28
2022-08-05T06:22:04.628Z,100192.94
2022-08-05T06:24:35.864Z,100193.72
2022-08-05T06:27:04.044Z,100196.22
2022-08-05T06:29:49.009Z,100195.22
2022-08-05T06:32:26.152Z,100194.13
2022-08-05T06:34:57.833Z,100194.91
2022-08-05T06:37:55.536Z,100193.00
2022-08-05T06:40:13.701Z,100199.84
2022-08-05T06:42:43.144Z,100198.84
2022-08-05T06:45:20.767Z,100197.81
2022-08-05T06:48:44.221Z,100197.66
2022-08-05T06:50:34.733Z,100193.03
2022-08-05T06:53:19.514Z,100188.41
2022-08-05T06:55:50.651Z,100188.25
2022-08-05T06:58:20.066Z,100188.06
2022-08-05T07:00:59.878Z,100188.94
2022-08-05T07:03:33.213Z,100183.47
2022-08-05T07:06:06.294Z,100185.06
2022-08-05T07:08:47.301Z,100182.13
2022-08-05T07:11:15.289Z,100192.47
2022-08-05T07:14:03.479Z,100195.72
2022-08-05T07:17:59.398Z,100190.22
2022-08-05T07:20:16.431Z,100187.28
2022-08-05T07:22:29.189Z,100183.44
2022-08-05T07:25:24.050Z,100182.22
2022-08-05T07:27:57.565Z,100185.38
2022-08-05T07:30:34.043Z,100186.97
2022-08-05T07:33:01.945Z,100185.03
2022-08-05T07:36:01.996Z,100175.16
2022-08-05T07:38:34.006Z,100178.38
2022-08-05T07:42:09.118Z,100171.66
2022-08-05T07:43:50.124Z,100168.44
2022-08-05T07:46:24.372Z,100171.63
2022-08-05T07:49:02.903Z,100173.06
2022-08-05T07:51:41.065Z,100166.47
2022-08-05T07:54:31.619Z,100166.88
2022-08-05T07:57:22.438Z,100170.72
2022-08-05T07:59:48.806Z,100173.63
2022-08-05T08:02:17.568Z,100171.88
2022-08-05T08:04:48.292Z,100171.88
2022-08-05T08:07:22.666Z,100175.25
2022-08-05T08:09:52.067Z,100174.94
2022-08-05T08:12:36.903Z,100169.06
2022-08-05T08:15:09.523Z,100160.63
2022-08-05T08:17:40.793Z,100169.00
2022-08-05T08:20:42.588Z,100162.44
2022-08-05T08:23:03.399Z,100158.25
2022-08-05T08:25:59.299Z,100160.41
2022-08-05T08:28:36.119Z,100166.28
2022-08-05T08:31:08.626Z,100156.81
2022-08-05T08:33:37.548Z,100163.31
2022-08-05T08:36:38.918Z,100161.03
2022-08-05T08:38:57.500Z,100157.41
2022-08-05T08:41:50.730Z,100156.81
2022-08-05T08:45:16.892Z,100159.91
2022-08-05T08:47:04.121Z,100153.81
2022-08-05T08:50:22.277Z,100163.06
2022-08-05T08:52:43.490Z,100152.66
2022-08-05T08:55:32.089Z,100151.19
2022-08-05T08:58:12.960Z,100154.38
2022-08-05T09:00:40.369Z,100142.19
2022-08-05T09:03:11.712Z,100146.22
2022-08-05T09:06:09.005Z,100148.41
2022-08-05T09:08:31.530Z,100151.09
2022-08-05T09:10:58.410Z,100145.28
2022-08-05T09:13:25.213Z,100144.81
2022-08-05T09:15:58.817Z,100145.84
2022-08-05T09:18:25.982Z,100136.75
2022-08-05T09:20:52.640Z,100143.25
2022-08-05T09:23:22.133Z,100141.03
2022-08-05T09:26:01.958Z,100140.53
2022-08-05T09:28:34.525Z,100130.69
2022-08-05T09:32:38.692Z,100137.63
2022-08-05T09:34:01.385Z,100119.41
2022-08-05T09:36:56.401Z,100127.72
2022-08-05T09:39:45.106Z,100122.63
2022-08-05T09:42:23.696Z,100118.53
2022-08-05T09:44:56.401Z,100120.06
2022-08-05T09:47:36.361Z,100112.44
2022-08-05T09:50:18.108Z,100113.59
2022-08-05T09:53:01.436Z,100106.94
2022-08-05T09:55:56.619Z,100106.50
2022-08-05T09:58:15.395Z,100101.41
2022-08-05T10:01:01.663Z,100112.25
2022-08-05T10:03:58.957Z,100090.03
2022-08-05T10:06:27.631Z,100105.31
2022-08-05T10:08:57.623Z,100092.69
2022-08-05T10:11:24.235Z,100088.16
2022-08-05T10:13:58.450Z,100097.31
2022-08-05T10:16:34.089Z,100087.19
2022-08-05T10:19:08.523Z,100090.31
2022-08-05T10:21:40.199Z,100084.56
2022-08-05T10:24:13.451Z,100083.53
2022-08-05T10:26:51.996Z,100088.78
2022-08-05T10:29:24.085Z,100074.50
2022-08-05T10:32:55.079Z,100072.25
2022-08-05T10:35:00.992Z,100064.25
2022-08-05T10:37:37.530Z,100069.28
2022-08-05T10:40:34.472Z,100065.75
2022-08-05T10:43:16.275Z,100071.84
2022-08-05T10:45:55.051Z,100068.44
2022-08-05T10:48:52.600Z,100069.56
2022-08-05T10:51:28.557Z,100064.94
2022-08-05T10:54:01.686Z,100067.66
2022-08-05T10:56:38.131Z,100071.00
2022-08-05T11:00:01.179Z,100060.94
2022-08-05T11:02:14.119Z,100064.25
2022-08-05T11:04:57.866Z,100054.25
2022-08-05T11:07:32.755Z,100055.84
2022-08-05T11:10:27.798Z,100051.63
2022-08-05T11:12:56.512Z,100044.22
2022-08-05T11:16:00.118Z,100039.16
2022-08-05T11:18:32.304Z,100035.84
2022-08-05T11:20:59.415Z,100031.97
2022-08-05T11:24:04.074Z,100031.63
2022-08-05T11:26:33.750Z,100034.69
2022-08-05T11:29:11.383Z,100031.69
2022-08-05T11:31:53.931Z,100033.88
2022-08-05T11:34:36.385Z,100035.06
2022-08-05T11:37:03.289Z,100035.59
2022-08-05T11:40:00.593Z,100027.63
2022-08-05T11:42:29.989Z,100031.91
2022-08-05T11:45:05.597Z,100034.03
2022-08-05T11:47:48.539Z,100034.97
2022-08-05T11:50:19.073Z,100035.44
2022-08-05T11:52:49.610Z,100043.94
2022-08-05T11:55:17.899Z,100033.97
2022-08-05T11:58:09.175Z,100036.16
2022-08-05T12:00:41.666Z,100029.50
2022-08-05T12:03:29.630Z,100028.22
2022-08-05T12:06:01.579Z,100027.19
2022-08-05T12:08:28.649Z,100040.22
2022-08-05T12:11:05.454Z,100031.03
2022-08-05T12:13:48.422Z,100024.59
2022-08-05T12:16:18.695Z,100025.91
2022-08-05T12:18:52.952Z,100023.63
2022-08-05T12:21:21.643Z,100021.63
2022-08-05T12:23:54.017Z,100010.03
2022-08-05T12:26:20.784Z,100017.56
2022-08-05T12:28:49.741Z,100020.16
2022-08-05T12:31:33.057Z,100021.31
2022-08-05T12:34:06.708Z,100015.97
2022-08-05T12:36:37.082Z,100008.69
2022-08-05T12:39:07.048Z,100013.03
2022-08-05T12:41:35.537Z,100008.19
2022-08-05T12:44:11.687Z,100016.81
2022-08-05T12:46:45.696Z,100003.28
2022-08-05T12:49:19.037Z,100015.63
2022-08-05T12:52:14.160Z,100009.44
2022-08-05T12:54:43.509Z,100002.09
2022-08-05T12:57:16.145Z,100007.44
2022-08-05T13:01:57.581Z,99994.09
2022-08-05T13:02:40.818Z,100005.44
2022-08-05T13:05:07.814Z,99989.94
2022-08-05T13:07:59.472Z,99984.03
2022-08-05T13:10:24.161Z,99983.84
2022-08-05T13:12:57.872Z,99986.00
2022-08-05T13:15:41.044Z,99994.38
2022-08-05T13:18:20.774Z,99972.53
2022-08-05T13:20:48.944Z,99975.34
2022-08-05T13:23:18.065Z,99967.81
2022-08-05T13:25:51.754Z,99962.50
2022-08-05T13:28:28.498Z,99961.66
2022-08-05T13:30:58.143Z,99955.75
2022-08-05T13:34:24.191Z,99953.13
2022-08-05T13:36:17.326Z,99951.47
2022-08-05T13:38:44.407Z,99939.59
2022-08-05T13:41:18.754Z,99943.34
2022-08-05T13:43:54.467Z,99943.47
2022-08-05T13:46:37.715Z,99950.75
2022-08-05T13:49:10.358Z,99948.03
2022-08-05T13:51:41.017Z,99948.97
2022-08-05T13:54:15.429Z,99948.13
2022-08-05T13:56:51.487Z,99936.88
2022-08-05T13:59:24.408Z,99943.63
2022-08-05T14:01:57.737Z,99932.38
2022-08-05T14:05:00.724Z,99932.03
2022-08-05T14:08:01.175Z,99922.00
2022-08-05T14:10:18.988Z,99929.25
2022-08-05T14:12:55.055Z,99921.75
2022-08-05T14:16:08.734Z,99924.66
2022-08-05T14:18:15.135Z,99928.59
2022-08-05T14:20:46.963Z,99919.69
2022-08-05T14:23:19.117Z,99914.22
2022-08-05T14:25:58.921Z,99911.88
2022-08-05T14:28:29.558Z,99901.91
2022-08-05T14:31:00.508Z,99910.41
2022-08-05T14:33:56.397Z,99906.66
2022-08-05T14:36:14.617Z,99906.13
2022-08-05T14:38:44.108Z,99907.38
2022-08-05T14:41:14.961Z,99910.78
2022-08-05T14:43:53.896Z,99906.53
2022-08-05T14:46:30.585Z,99905.81
2022-08-05T14:48:58.998Z,99902.00
2022-08-05T14:51:30.915Z,99901.94
2022-08-05T14:54:28.599Z,99899.78
2022-08-05T14:56:47.207Z,99895.50
2022-08-05T14:59:17.236Z,99895.38
2022-08-05T15:01:47.171Z,99886.50
2022-08-05T15:04:20.575Z,99882.47
2022-08-05T15:06:49.760Z,99882.13
2022-08-05T15:09:51.115Z,99881.50
2022-08-05T15:12:16.745Z,99876.88
2022-08-05T15:14:50.043Z,99879.22
2022-08-05T15:17:47.710Z,99883.94
2022-08-05T15:20:15.542Z,99878.91
2022-08-05T15:22:45.950Z,99878.34
2022-08-05T15:25:23.660Z,99874.50
2022-08-05T15:28:14.317Z,99859.28
2022-08-05T15:30:45.703Z,99861.78
2022-08-05T15:33:13.579Z,99867.59
2022-08-05T15:36:03.646Z,99859.19
2022-08-05T15:38:40.770Z,99857.09
2022-08-05T15:41:22.192Z,99852.91
2022-08-05T15:43:50.446Z,99849.59
2022-08-05T15:46:17.147Z,99850.63
2022-08-05T15:48:52.540Z,99846.16
2022-08-05T15:52:10.040Z,99840.59
2022-08-05T15:54:19.938Z,99834.47
2022-08-05T15:57:03.536Z,99833.66
2022-08-05T15:59:34.569Z,99841.53
2022-08-05T16:02:03.521Z,99846.53
2022-08-05T16:04:38.673Z,99839.53
2022-08-05T16:07:05.909Z,99848.59
2022-08-05T16:09:37.230Z,99843.44
2022-08-05T16:12:08.523Z,99836.22
2022-08-05T16:14:38.635Z,99834.06
2022-08-05T16:17:05.412Z,99836.88
2022-08-05T16:20:05.265Z,99836.97
2022-08-05T16:22:24.172Z,99835.84
2022-08-05T16:24:56.859Z,99844.22
2022-08-05T16:27:46.733Z,99834.22
2022-08-05T16:30:25.477Z,99833.53
2022-08-05T16:32:55.507Z,99831.06
2022-08-05T16:35:27.839Z,99836.56
2022-08-05T16:38:02.383Z,99833.94
2022-08-05T16:40:47.723Z,99826.34
2022-08-05T16:43:18.998Z,99836.66
2022-08-05T16:46:07.662Z,99832.03
2022-08-05T16:48:36.420Z,99837.69
2022-08-05T16:51:10.178Z,99836.38
2022-08-05T16:54:05.366Z,99840.25
2022-08-05T16:56:33.825Z,99836.53
2022-08-05T16:59:08.185Z,99830.31
2022-08-05T17:01:53.884Z,99831.69
2022-08-05T17:04:23.841Z,99823.34
2022-08-05T17:06:54.243Z,99824.84
2022-08-05T17:09:21.138Z,99827.47
2022-08-05T17:11:59.647Z,99833.38
2022-08-05T17:14:37.102Z,99829.34
2022-08-05T17:17:04.915Z,99822.16
2022-08-05T17:19:31.637Z,99834.16
2022-08-05T17:22:01.792Z,99836.72
2022-08-05T17:24:38.538Z,99835.91
2022-08-05T17:27:07.086Z,99842.00
2022-08-05T17:29:40.955Z,99834.81
2022-08-05T17:32:11.451Z,99837.19
2022-08-05T17:34:39.191Z,99841.13
2022-08-05T17:37:32.108Z,99839.88
2022-08-05T17:39:55.380Z,99846.06
2022-08-05T17:42:31.979Z,99846.72
2022-08-05T17:44:59.602Z,99842.53
2022-08-05T17:47:26.544Z,99831.91
2022-08-05T17:50:03.706Z,99840.63
2022-08-05T17:52:34.385Z,99845.72
2022-08-05T17:55:01.209Z,99845.72
2022-08-05T17:57:32.596Z,99839.31
2022-08-05T18:00:05.136Z,99847.81
2022-08-05T18:02:35.302Z,99846.53
2022-08-05T18:05:05.957Z,99840.72
2022-08-05T18:07:41.485Z,99846.63
2022-08-05T18:10:10.403Z,99853.19
2022-08-05T18:12:37.681Z,99856.38
2022-08-05T18:15:04.879Z,99844.09
2022-08-05T18:17:59.229Z,99850.75
2022-08-05T18:20:29.238Z,99839.66
2022-08-05T18:23:11.919Z,99846.22
2022-08-05T18:25:45.091Z,99838.56
2022-08-05T18:28:16.247Z,99840.66
2022-08-05T18:30:51.233Z,99841.97
2022-08-05T18:33:23.146Z,99852.34
2022-08-05T18:36:03.912Z,99854.69
2022-08-05T18:38:36.747Z,99860.34
2022-08-05T18:41:58.476Z,99858.22
2022-08-05T18:43:57.672Z,99865.75
2022-08-05T18:46:32.650Z,99860.75
2022-08-05T18:49:19.824Z,99862.09
2022-08-05T18:52:08.901Z,99858.94
2022-08-05T18:54:41.148Z,99857.53
2022-08-05T18:57:15.385Z,99863.25
2022-08-05T19:00:02.204Z,99868.69
2022-08-05T19:02:29.633Z,99873.41
2022-08-05T19:05:02.829Z,99874.53
2022-08-05T19:07:48.096Z,99863.41
2022-08-05T19:10:17.410Z,99861.16
2022-08-05T19:12:48.358Z,99866.91
2022-08-05T19:15:57.146Z,99876.09
2022-08-05T19:18:09.520Z,99873.75
2022-08-05T19:20:41.492Z,99874.22
2022-08-05T19:24:03.622Z,99873.06
2022-08-05T19:26:01.930Z,99874.44
2022-08-05T19:28:33.846Z,99873.91
2022-08-05T19:31:06.058Z,99880.56
2022-08-05T19:33:36.232Z,99873.00
2022-08-05T19:36:07.013Z,99879.72
2022-08-05T19:38:37.065Z,99880.19
2022-08-05T19:41:09.040Z,99885.19
2022-08-05T19:44:05.403Z,99881.53
2022-08-05T19:46:30.185Z,99879.47
2022-08-05T19:48:57.446Z,99879.97
2022-08-05T19:52:04.732Z,99875.13
2022-08-05T19:54:26.626Z,99879.25
2022-08-05T19:56:58.596Z,99876.28
2022-08-05T19:59:54.966Z,99888.19
2022-08-05T20:02:12.714Z,99887.06
2022-08-05T20:04:42.799Z,99895.66
2022-08-05T20:07:13.396Z,99896.19
2022-08-05T20:09:53.579Z,99897.69
2022-08-05T20:12:22.238Z,99889.97
2022-08-05T20:14:52.339Z,99899.09
2022-08-05T20:17:24.241Z,99895.03
2022-08-05T20:19:57.008Z,99894.03
2022-08-05T20:22:27.214Z,99899.00
2022-08-05T20:24:54.859Z,99904.50
2022-08-05T20:27:26.939Z,99903.63
2022-08-05T20:29:58.896Z,99911.75
2022-08-05T20:32:26.696Z,99906.69
2022-08-05T20:34:53.668Z,99908.75
2022-08-05T20:38:04.919Z,99915.13
2022-08-05T20:40:07.689Z,99909.28
2022-08-05T20:42:37.512Z,99905.97
2022-08-05T20:45:06.993Z,99910.53
2022-08-05T20:47:34.779Z,99913.25
2022-08-05T20:50:07.432Z,99915.19
2022-08-05T20:52:41.475Z,99915.56
2022-08-05T20:55:56.364Z,99914.28
2022-08-05T20:57:55.669Z,99917.28
2022-08-05T21:00:44.210Z,99920.78
2022-08-05T21:03:10.534Z,99919.50
2022-08-05T21:05:48.083Z,99920.53
2022-08-05T21:08:26.841Z,99921.66
2022-08-05T21:11:09.921Z,99915.47
2022-08-05T21:13:47.854Z,99921.13
2022-08-05T21:16:29.641Z,99916.53
2022-08-05T21:19:00.148Z,99918.47
2022-08-05T21:21:39.145Z,99919.13
2022-08-05T21:24:09.918Z,99920.78
2022-08-05T21:26:41.352Z,99924.09
2022-08-05T21:29:10.064Z,99925.00
2022-08-05T21:31:41.215Z,99931.25
2022-08-05T21:34:10.391Z,99931.25
2022-08-05T21:36:37.747Z,99924.22
2022-08-05T21:39:04.405Z,99932.31
2022-08-05T21:41:34.286Z,99932.53
2022-08-05T21:44:04.323Z,99927.47
2022-08-05T21:46:34.950Z,99931.19
2022-08-05T21:49:02.364Z,99935.03
2022-08-05T21:52:15.900Z,99934.31
2022-08-05T21:54:27.830Z,99938.03
2022-08-05T21:57:04.883Z,99941.78
2022-08-05T22:00:02.909Z,99942.84
2022-08-05T22:02:39.267Z,99935.03
2022-08-05T22:05:13.164Z,99946.66
2022-08-05T22:07:58.812Z,99945.19
2022-08-05T22:10:29.354Z,99935.84
2022-08-05T22:14:06.407Z,99934.25
2022-08-05T22:16:02.756Z,99943.28
2022-08-05T22:18:34.461Z,99940.88
2022-08-05T22:21:03.959Z,99945.50
2022-08-05T22:24:02.593Z,99947.50
2022-08-05T22:26:54.340Z,99935.38
2022-08-05T22:29:26.589Z,99941.81
2022-08-05T22:32:02.950Z,99940.13
2022-08-05T22:34:30.234Z,99942.91
2022-08-05T22:36:59.445Z,99940.47
2022-08-05T22:39:32.997Z,99946.78
2022-08-05T22:42:09.771Z,99939.97
2022-08-05T22:44:38.966Z,99933.94
2022-08-05T22:47:05.701Z,99938.53
2022-08-05T22:50:20.595Z,99935.22
2022-08-05T22:52:22.875Z,99933.75
2022-08-05T22:55:00.995Z,99935.81
2022-08-05T22:57:34.155Z,99936.84
2022-08-05T23:00:07.809Z,99943.22
2022-08-05T23:02:39.949Z,99936.41
2022-08-05T23:05:14.218Z,99943.63
2022-08-05T23:07:48.396Z,99937.53
2022-08-05T23:10:19.527Z,99947.34
2022-08-05T23:12:54.479Z,99934.16
2022-08-05T23:15:29.057Z,99939.56
2022-08-05T23:18:00.531Z,99937.97
2022-08-05T23:20:28.687Z,99946.31
2022-08-05T23:22:55.977Z,99944.84
2022-08-05T23:25:52.619Z,99937.06
2022-08-05T23:28:17.192Z,99937.09
2022-08-05T23:30:53.635Z,99931.88
2022-08-05T23:33:25.771Z,99934.69
2022-08-05T23:35:55.074Z,99932.06
2022-08-05T23:38:23.039Z,99926.81
2022-08-05T23:40:52.759Z,99933.13
2022-08-05T23:43:24.856Z,99934.16
2022-08-05T23:46:03.709Z,99934.28
2022-08-05T23:48:30.262Z,99930.81
2022-08-05T23:50:56.994Z,99935.38
2022-08-05T23:53:28.501Z,99928.38
2022-08-05T23:56:12.330Z,99924.06
2022-08-05T23:58:38.946Z,99918.88
